Time;durP1;ratioP1;P1;durP2;ratioP2;P2;SDS_P1;SDS_P2;PMS_P1;PMS_P2;Temp;Humidity;BMP_temperature;BMP_pressure;BME280_temperature;BME280_humidity;BME280_pressure;Samples;Min_cycle;Max_cycle;Signal;HPM_P1;HPM_P2
2023/06/11 00:01:18;;;;;;;;;;;;;;;24.17;41.52;100417.13;4929885;28;6818;-74
2023/06/11 00:03:46;;;;;;;;;;;;;;;24.08;42.10;100410.22;4933975;28;6842;-71
2023/06/11 00:06:17;;;;;;;;;;;;;;;24.01;42.09;100409.38;4940388;28;6804;-73
2023/06/11 00:08:47;;;;;;;;;;;;;;;23.94;42.01;100413.75;4930425;28;6895;-73
2023/06/11 00:11:13;;;;;;;;;;;;;;;23.92;42.53;100410.28;4951161;28;6788;-71
2023/06/11 00:13:39;;;;;;;;;;;;;;;23.92;42.22;100410.28;4920746;28;6983;-71
2023/06/11 00:16:06;;;;;;;;;;;;;;;23.93;42.42;100411.16;4933754;28;6780;-72
2023/06/11 00:18:31;;;;;;;;;;;;;;;23.94;42.62;100410.28;4947732;28;6800;-73
2023/06/11 00:20:58;;;;;;;;;;;;;;;23.95;42.23;100409.41;4934892;28;6835;-71
2023/06/11 00:23:25;;;;;;;;;;;;;;;23.94;42.49;100408.53;4945538;28;6797;-72
2023/06/11 00:25:54;;;;;;;;;;;;;;;23.96;42.76;100411.13;4949559;28;6776;-73
2023/06/11 00:28:20;;;;;;;;;;;;;;;23.94;42.28;100407.66;4915628;28;7031;-73
2023/06/11 00:30:45;;;;;;;;;;;;;;;23.95;42.20;100412.91;4932527;28;7254;-72
2023/06/11 00:33:11;;;;;;;;;;;;;;;23.94;42.75;100408.53;4934476;28;6776;-73
2023/06/11 00:35:37;;;;;;;;;;;;;;;23.93;42.51;100409.41;4926541;28;6947;-74
2023/06/11 00:38:03;;;;;;;;;;;;;;;23.89;42.19;100407.72;4952064;28;6812;-74
2023/06/11 00:40:31;;;;;;;;;;;;;;;23.87;42.40;100401.63;4938390;28;6962;-74
2023/06/11 00:42:57;;;;;;;;;;;;;;;23.85;42.08;100403.34;4952581;28;7038;-73
2023/06/11 00:45:24;;;;;;;;;;;;;;;23.83;41.86;100411.25;4934345;28;6989;-71
2023/06/11 00:47:50;;;;;;;;;;;;;;;23.83;42.00;100399.88;4934261;28;7016;-74
2023/06/11 00:50:16;;;;;;;;;;;;;;;23.83;42.31;100402.50;4948191;28;6808;-72
2023/06/11 00:52:42;;;;;;;;;;;;;;;23.82;42.21;100399.03;4937145;28;6923;-73
2023/06/11 00:55:11;;;;;;;;;;;;;;;23.79;42.53;100398.19;4951837;28;7233;-73
2023/06/11 00:57:41;;;;;;;;;;;;;;;23.72;42.34;100398.22;4952548;28;6979;-72
2023/06/11 01:00:12;;;;;;;;;;;;;;;23.68;42.52;100401.75;4949202;28;6880;-71
2023/06/11 01:02:59;;;;;;;;;;;;;;;23.61;42.26;100402.66;4938193;28;11544;-72
2023/06/11 01:05:27;;;;;;;;;;;;;;;23.56;42.29;100400.06;4936620;28;6831;-72
2023/06/11 01:07:55;;;;;;;;;;;;;;;23.54;42.43;100406.16;4944132;28;7185;-72
2023/06/11 01:10:21;;;;;;;;;;;;;;;23.52;42.42;100400.97;4937375;28;6792;-73
2023/06/11 01:12:48;;;;;;;;;;;;;;;23.51;42.45;100400.97;4941914;28;6780;-72
2023/06/11 01:15:14;;;;;;;;;;;;;;;23.51;42.21;100401.81;4951288;28;6856;-71
2023/06/11 01:17:46;;;;;;;;;;;;;;;23.51;42.26;100400.97;4929347;28;6980;-71
2023/06/11 01:20:19;;;;;;;;;;;;;;;23.51;42.46;100400.97;4955482;28;6804;-73
2023/06/11 01:22:55;;;;;;;;;;;;;;;23.51;42.06;100406.19;4945186;28;7035;-72
2023/06/11 01:25:37;;;;;;;;;;;;;;;23.52;42.37;100408.81;4949294;28;7018;-72
2023/06/11 01:28:16;;;;;;;;;;;;;;;23.53;42.29;100410.56;4936405;28;7083;-71
2023/06/11 01:30:49;;;;;;;;;;;;;;;23.54;42.48;100408.78;4935822;28;7200;-74
2023/06/11 01:33:18;;;;;;;;;;;;;;;23.55;42.44;100407.91;4939410;28;6868;-74
2023/06/11 01:35:46;;;;;;;;;;;;;;;23.55;42.87;100408.78;4931624;28;6832;-74
2023/06/11 01:38:13;;;;;;;;;;;;;;;23.56;42.44;100409.63;4929526;28;7169;-73
2023/06/11 01:40:40;;;;;;;;;;;;;;;23.56;42.78;100412.25;4936670;28;7151;-74
2023/06/11 01:43:05;;;;;;;;;;;;;;;23.56;43.06;100405.28;4948389;28;6808;-73
2023/06/11 01:45:36;;;;;;;;;;;;;;;23.60;42.93;100415.72;4949874;28;6820;-72
2023/06/11 01:48:02;;;;;;;;;;;;;;;23.61;43.34;100407.88;4949685;28;7094;-73
2023/06/11 01:50:28;;;;;;;;;;;;;;;23.61;43.06;100407.88;4930441;28;6780;-72
2023/06/11 01:52:54;;;;;;;;;;;;;;;23.64;43.40;100409.63;4946812;28;6776;-72
2023/06/11 01:55:19;;;;;;;;;;;;;;;23.63;43.27;100406.13;4935547;28;6810;-73
2023/06/11 01:57:46;;;;;;;;;;;;;;;23.65;43.39;100406.13;4933511;28;7224;-72
2023/06/11 02:00:12;;;;;;;;;;;;;;;23.64;43.05;100407.84;4931915;28;7162;-74
2023/06/11 02:02:44;;;;;;;;;;;;;;;23.64;43.57;100407.84;4941228;28;6788;-74
2023/06/11 02:05:09;;;;;;;;;;;;;;;23.62;43.60;100399.16;4932446;28;7128;-73
2023/06/11 02:07:36;;;;;;;;;;;;;;;23.64;43.46;100401.78;4934974;28;6967;-73
2023/06/11 02:10:02;;;;;;;;;;;;;;;23.64;43.51;100407.84;4946672;28;6979;-74
2023/06/11 02:12:28;;;;;;;;;;;;;;;23.64;43.67;100410.47;4949003;28;7313;-72
2023/06/11 02:14:53;;;;;;;;;;;;;;;23.61;43.38;100402.66;4950777;28;6864;-72
2023/06/11 02:17:19;;;;;;;;;;;;;;;23.62;43.27;100407.00;4946754;28;6776;-74
2023/06/11 02:19:44;;;;;;;;;;;;;;;23.60;43.43;100403.53;4920036;28;7053;-73
2023/06/11 02:22:10;;;;;;;;;;;;;;;23.59;43.54;100404.41;4944582;28;6764;-73
2023/06/11 02:24:36;;;;;;;;;;;;;;;23.60;43.69;100407.88;4940936;28;6935;-73
2023/06/11 02:27:01;;;;;;;;;;;;;;;23.58;43.88;100400.91;4938817;28;6790;-73
2023/06/11 02:29:27;;;;;;;;;;;;;;;23.58;43.89;100402.69;4947575;28;6855;-72
2023/06/11 02:31:53;;;;;;;;;;;;;;;23.57;44.38;100401.81;4936726;28;6852;-73
2023/06/11 02:34:18;;;;;;;;;;;;;;;23.57;43.79;100400.94;4946609;28;6888;-72
2023/06/11 02:36:44;;;;;;;;;;;;;;;23.56;44.47;100407.91;4946632;28;6880;-72
2023/06/11 02:39:10;;;;;;;;;;;;;;;23.56;43.81;100404.41;4931735;28;6864;-73
2023/06/11 02:41:35;;;;;;;;;;;;;;;23.55;44.26;100408.78;4947532;28;6792;-74
2023/06/11 02:44:01;;;;;;;;;;;;;;;23.54;44.21;100409.66;4928191;28;6943;-74
2023/06/11 02:46:27;;;;;;;;;;;;;;;23.53;44.36;100413.16;4928544;28;7014;-74
2023/06/11 02:48:52;;;;;;;;;;;;;;;23.52;44.46;100415.78;4939944;28;6920;-74
2023/06/11 02:51:18;;;;;;;;;;;;;;;23.51;44.51;100408.81;4944741;28;6791;-73
2023/06/11 02:53:44;;;;;;;;;;;;;;;23.48;44.56;100411.47;4945788;28;7095;-75
2023/06/11 02:56:09;;;;;;;;;;;;;;;23.44;44.80;100406.22;4962845;28;6851;-74
2023/06/11 02:58:35;;;;;;;;;;;;;;;23.44;44.50;100406.22;4948403;28;6874;-75
2023/06/11 03:01:01;;;;;;;;;;;;;;;23.41;44.58;100414.09;4962792;28;6764;-75
2023/06/11 03:03:26;;;;;;;;;;;;;;;23.39;44.55;100410.63;4943427;28;6792;-75
2023/06/11 03:05:52;;;;;;;;;;;;;;;23.39;44.80;100410.63;4950623;28;8449;-75
2023/06/11 03:08:17;;;;;;;;;;;;;;;23.37;44.82;100416.72;4957247;28;6776;-75
2023/06/11 03:10:43;;;;;;;;;;;;;;;23.35;44.72;100414.13;4949000;28;6964;-75
2023/06/11 03:13:09;;;;;;;;;;;;;;;23.33;45.04;100418.50;4951775;28;7086;-75
2023/06/11 03:15:34;;;;;;;;;;;;;;;23.32;45.22;100421.97;4966206;28;6856;-75
2023/06/11 03:18:00;;;;;;;;;;;;;;;23.30;44.63;100424.59;4948464;28;6776;-75
2023/06/11 03:20:26;;;;;;;;;;;;;;;23.28;45.08;100422.88;4962848;28;6988;-75
2023/06/11 03:22:51;;;;;;;;;;;;;;;23.27;45.10;100421.09;4951268;28;6832;-75
2023/06/11 03:25:17;;;;;;;;;;;;;;;23.25;45.05;100420.22;4946547;28;6848;-75
2023/06/11 03:27:43;;;;;;;;;;;;;;;23.23;44.81;100417.66;4949133;28;6948;-75
2023/06/11 03:30:09;;;;;;;;;;;;;;;23.23;44.99;100419.38;4966742;28;6772;-75
2023/06/11 03:32:34;;;;;;;;;;;;;;;23.22;45.34;100417.63;4948637;28;11840;-75
2023/06/11 03:35:00;;;;;;;;;;;;;;;23.21;45.45;100413.28;4951406;28;7387;-74
2023/06/11 03:37:25;;;;;;;;;;;;;;;23.21;45.04;100423.75;4965065;28;7672;-75
2023/06/11 03:39:51;;;;;;;;;;;;;;;23.17;44.85;100417.66;4946922;28;6780;-75
2023/06/11 03:42:17;;;;;;;;;;;;;;;23.16;45.25;100422.00;4941252;28;7056;-75
2023/06/11 03:44:42;;;;;;;;;;;;;;;23.13;45.62;100419.41;4945229;28;6903;-75
2023/06/11 03:47:08;;;;;;;;;;;;;;;23.12;45.53;100420.28;4958000;28;7040;-75
2023/06/11 03:49:33;;;;;;;;;;;;;;;23.10;45.49;100416.81;4961621;28;7228;-75
2023/06/11 03:51:59;;;;;;;;;;;;;;;23.09;45.14;100415.09;4940098;28;6844;-74
2023/06/11 03:54:25;;;;;;;;;;;;;;;23.08;45.65;100423.81;4938830;28;7001;-75
2023/06/11 03:56:51;;;;;;;;;;;;;;;23.06;45.93;100425.53;4956999;28;6994;-76
2023/06/11 03:59:16;;;;;;;;;;;;;;;23.03;45.89;100421.19;4958730;28;6780;-76
2023/06/11 04:01:42;;;;;;;;;;;;;;;23.02;46.04;100423.81;4952063;28;7398;-76
2023/06/11 04:04:08;;;;;;;;;;;;;;;23.02;46.06;100429.88;4953002;28;10364;-75
2023/06/11 04:06:38;;;;;;;;;;;;;;;23.04;45.87;100424.66;4958132;28;6764;-75
2023/06/11 04:09:04;;;;;;;;;;;;;;;23.04;46.08;100424.66;4924705;28;7433;-76
2023/06/11 04:11:30;;;;;;;;;;;;;;;23.06;46.10;100430.75;4953212;28;6986;-76
2023/06/11 04:13:56;;;;;;;;;;;;;;;23.08;45.96;100425.53;4960367;28;7066;-75
2023/06/11 04:16:21;;;;;;;;;;;;;;;23.17;46.38;100425.50;4961433;28;6760;-75
2023/06/11 04:18:47;;;;;;;;;;;;;;;23.33;46.75;100428.94;4955798;28;6796;-74
2023/06/11 04:21:14;;;;;;;;;;;;;;;23.56;46.83;100417.50;4950633;28;7431;-75
2023/06/11 04:23:40;;;;;;;;;;;;;;;23.82;46.89;100421.69;4939544;28;6802;-75
2023/06/11 04:26:09;;;;;;;;;;;;;;;24.08;46.74;100415.44;4958255;28;7252;-75
2023/06/11 04:28:40;;;;;;;;;;;;;;;24.35;46.14;100418.72;4941312;28;7008;-76
2023/06/11 04:31:06;;;;;;;;;;;;;;;24.64;45.79;100428.06;4951369;28;6816;-75
2023/06/11 04:33:32;;;;;;;;;;;;;;;24.91;45.31;100421.69;4923687;28;7296;-76
2023/06/11 04:36:00;;;;;;;;;;;;;;;25.17;45.49;100414.41;4925464;28;7056;-75
2023/06/11 04:38:28;;;;;;;;;;;;;;;25.43;44.63;100421.06;4953835;28;6955;-76
2023/06/11 04:40:55;;;;;;;;;;;;;;;25.67;44.38;100419.00;4951883;28;6827;-76
2023/06/11 04:43:23;;;;;;;;;;;;;;;25.90;44.32;100426.53;4933954;28;7068;-75
2023/06/11 04:45:55;;;;;;;;;;;;;;;26.11;43.40;100422.72;4937002;28;7005;-76
2023/06/11 04:48:28;;;;;;;;;;;;;;;26.30;43.18;100422.44;4952041;28;7232;-76
2023/06/11 04:50:54;;;;;;;;;;;;;;;26.48;43.09;100423.88;4935356;28;7295;-77
2023/06/11 04:53:24;;;;;;;;;;;;;;;26.65;42.56;100426.19;4945891;28;6784;-75
2023/06/11 04:55:51;;;;;;;;;;;;;;;26.84;42.62;100417.94;4946728;28;6804;-75
2023/06/11 04:58:21;;;;;;;;;;;;;;;27.05;42.34;100421.94;4918027;28;6987;-75
2023/06/11 05:00:52;;;;;;;;;;;;;;;27.27;42.09;100426.75;4920904;28;7090;-76
2023/06/11 05:03:21;;;;;;;;;;;;;;;27.49;42.15;100424.53;4936380;28;7170;-76
2023/06/11 05:05:51;;;;;;;;;;;;;;;27.73;41.35;100422.28;4918212;28;7157;-76
2023/06/11 05:08:24;;;;;;;;;;;;;;;27.94;41.60;100417.41;4948080;28;6816;-76
2023/06/11 05:10:51;;;;;;;;;;;;;;;28.13;40.87;100421.31;4952880;28;6815;-75
2023/06/11 05:13:22;;;;;;;;;;;;;;;28.33;40.63;100429.66;4952279;28;6817;-76
2023/06/11 05:15:48;;;;;;;;;;;;;;;28.52;40.26;100432.69;4945894;28;7072;-76
2023/06/11 05:18:14;;;;;;;;;;;;;;;28.68;39.46;100431.38;4940855;28;6805;-75
2023/06/11 05:20:40;;;;;;;;;;;;;;;28.83;39.25;100429.25;4954030;28;6812;-76
2023/06/11 05:23:06;;;;;;;;;;;;;;;28.98;39.05;100429.72;4947791;28;6813;-75
2023/06/11 05:25:31;;;;;;;;;;;;;;;29.09;38.66;100430.28;4954669;28;6824;-74
2023/06/11 05:28:02;;;;;;;;;;;;;;;29.18;38.72;100432.66;4972936;28;6782;-76
2023/06/11 05:30:33;;;;;;;;;;;;;;;29.25;39.00;100433.34;4952627;28;6804;-77
2023/06/11 05:33:00;;;;;;;;;;;;;;;29.36;38.34;100438.31;4936531;28;7035;-76
2023/06/11 05:35:26;;;;;;;;;;;;;;;29.46;39.03;100439.78;4955955;28;7257;-76
2023/06/11 05:37:52;;;;;;;;;;;;;;;29.57;38.22;100442.06;4957082;28;6838;-76
2023/06/11 05:40:18;;;;;;;;;;;;;;;29.68;38.21;100438.22;4948369;28;6792;-76
2023/06/11 05:42:43;;;;;;;;;;;;;;;29.75;37.83;100435.38;4937190;28;6892;-76
2023/06/11 05:45:09;;;;;;;;;;;;;;;29.84;37.03;100438.59;4947794;28;6796;-76
2023/06/11 05:47:35;;;;;;;;;;;;;;;29.91;36.76;100446.31;4950878;28;6784;-75
2023/06/11 05:50:01;;;;;;;;;;;;;;;29.99;37.33;100440.75;4925193;28;7065;-75
2023/06/11 05:52:26;;;;;;;;;;;;;;;30.03;37.13;100445.00;4951312;28;6804;-75
2023/06/11 05:54:52;;;;;;;;;;;;;;;30.07;37.16;100441.41;4959411;28;7227;-75
2023/06/11 05:57:24;;;;;;;;;;;;;;;30.10;36.65;100450.13;4957743;28;6964;-74
2023/06/11 05:59:53;;;;;;;;;;;;;;;30.01;36.56;100441.56;4953322;28;7432;-75
2023/06/11 06:02:18;;;;;;;;;;;;;;;29.88;37.25;100449.03;4940302;28;6824;-75
2023/06/11 06:04:51;;;;;;;;;;;;;;;29.70;36.88;100450.47;4965351;28;8515;-76
2023/06/11 06:07:17;;;;;;;;;;;;;;;29.46;36.46;100452.97;4957001;23;6869;-82
2023/06/11 06:09:42;;;;;;;;;;;;;;;29.21;37.18;100461.56;4939952;28;7205;-81
2023/06/11 06:12:10;;;;;;;;;;;;;;;28.96;37.05;100453.50;4937434;28;7135;-81
2023/06/11 06:14:38;;;;;;;;;;;;;;;28.75;37.71;100468.97;4924154;28;9074;-83
2023/06/11 06:17:05;;;;;;;;;;;;;;;28.55;37.57;100464.22;4920425;28;8429;-83
2023/06/11 06:19:31;;;;;;;;;;;;;;;28.39;37.97;100467.28;4920682;28;7437;-82
2023/06/11 06:21:57;;;;;;;;;;;;;;;28.25;38.39;100472.88;4924544;28;7194;-82
2023/06/11 06:24:22;;;;;;;;;;;;;;;28.14;38.74;100473.09;4937261;28;6780;-81
2023/06/11 06:26:56;;;;;;;;;;;;;;;28.04;38.64;100470.72;4930504;28;8479;-83
2023/06/11 06:29:28;;;;;;;;;;;;;;;27.92;39.19;100470.09;4940688;28;6812;-88
2023/06/11 06:31:57;;;;;;;;;;;;;;;27.83;39.33;100465.94;4912350;28;8639;-84
2023/06/11 06:34:22;;;;;;;;;;;;;;;27.76;39.32;100471.34;4936978;28;7150;-84
2023/06/11 06:36:48;;;;;;;;;;;;;;;27.70;39.38;100480.25;4937099;28;6939;-84
2023/06/11 06:39:14;;;;;;;;;;;;;;;27.63;39.60;100476.91;4933566;28;8815;-84
2023/06/11 06:41:40;;;;;;;;;;;;;;;27.61;40.22;100475.19;4936784;28;6834;-84
2023/06/11 06:44:05;;;;;;;;;;;;;;;27.58;40.14;100479.63;4937679;28;6979;-85
2023/06/11 06:46:31;;;;;;;;;;;;;;;27.58;40.21;100479.63;4939440;28;6844;-85
2023/06/11 06:48:58;;;;;;;;;;;;;;;27.61;40.22;100483.09;4926940;28;7366;-84
2023/06/11 06:51:23;;;;;;;;;;;;;;;27.64;40.18;100477.78;4934666;28;6864;-84
2023/06/11 06:53:50;;;;;;;;;;;;;;;27.75;40.32;100480.16;4935346;28;8377;-85
2023/06/11 06:56:17;;;;;;;;;;;;;;;27.94;40.75;100480.63;4924047;28;8871;-84
2023/06/11 06:58:43;;;;;;;;;;;;;;;28.19;40.52;100469.50;4937136;28;6788;-84
2023/06/11 07:01:17;;;;;;;;;;;;;;;28.53;40.94;100476.59;4931253;28;8525;-87
2023/06/11 07:03:43;;;;;;;;;;;;;;;28.92;40.60;100476.47;4936267;28;8383;-85
2023/06/11 07:06:08;;;;;;;;;;;;;;;29.34;39.91;100477.03;4922215;28;6825;-84
2023/06/11 07:08:38;;;;;;;;;;;;;;;29.84;39.60;100470.28;4926725;28;6955;-86
2023/06/11 07:11:06;;;;;;;;;;;;;;;30.28;39.39;100473.31;4916421;28;7341;-84
2023/06/11 07:13:32;;;;;;;;;;;;;;;30.74;38.57;100472.69;4919071;28;6985;-86
2023/06/11 07:15:57;;;;;;;;;;;;;;;31.13;38.05;100472.16;4932100;28;6990;-85
2023/06/11 07:18:25;;;;;;;;;;;;;;;31.56;37.63;100482.06;4930177;28;9499;-84
2023/06/11 07:20:55;;;;;;;;;;;;;;;31.89;37.21;100481.69;4932163;28;7088;-86
2023/06/11 07:23:20;;;;;;;;;;;;;;;32.19;36.70;100477.84;4918751;28;7175;-86
2023/06/11 07:25:48;;;;;;;;;;;;;;;32.43;35.79;100473.31;4936104;28;6939;-85
2023/06/11 07:28:14;;;;;;;;;;;;;;;32.58;35.61;100469.16;4916773;28;7026;-86
2023/06/11 07:30:40;;;;;;;;;;;;;;;32.77;35.32;100463.91;4915624;28;7251;-81
2023/06/11 07:33:11;;;;;;;;;;;;;;;32.93;34.89;100465.91;4918251;28;7138;-85
2023/06/11 07:35:40;;;;;;;;;;;;;;;33.13;34.63;100466.78;4923907;28;7079;-86
2023/06/11 07:38:06;;;;;;;;;;;;;;;33.32;34.51;100470.34;4936943;28;6833;-87
2023/06/11 07:40:31;;;;;;;;;;;;;;;33.58;34.29;100473.56;4923669;28;6988;-86
2023/06/11 07:42:57;;;;;;;;;;;;;;;33.82;34.05;100468.03;4933173;28;7074;-86
2023/06/11 07:45:22;;;;;;;;;;;;;;;34.02;33.69;100463.56;4916879;28;6967;-84
2023/06/11 07:47:48;;;;;;;;;;;;;;;34.26;33.57;100461.44;4929931;28;6958;-84
2023/06/11 07:50:14;;;;;;;;;;;;;;;34.44;32.66;100461.44;4926830;28;8279;-83
2023/06/11 07:52:42;;;;;;;;;;;;;;;34.61;32.59;100458.78;4934553;28;8399;-85
2023/06/11 07:55:07;;;;;;;;;;;;;;;34.81;32.26;100467.50;4922471;28;8191;-86
2023/06/11 07:57:35;;;;;;;;;;;;;;;34.99;32.42;100467.47;4926660;28;8399;-86
2023/06/11 08:00:01;;;;;;;;;;;;;;;35.21;31.96;100461.88;4935498;28;7005;-84
2023/06/11 08:02:28;;;;;;;;;;;;;;;35.45;31.58;100459.66;4931742;28;6776;-83
2023/06/11 08:04:54;;;;;;;;;;;;;;;35.63;31.00;100466.72;4927922;28;6807;-86
2023/06/11 08:07:20;;;;;;;;;;;;;;;35.73;30.59;100465.25;4921112;28;6984;-82
2023/06/11 08:09:52;;;;;;;;;;;;;;;35.74;30.38;100467.00;4915016;28;7240;-86
2023/06/11 08:12:17;;;;;;;;;;;;;;;35.70;30.30;100478.75;4922085;28;7056;-85
2023/06/11 08:14:46;;;;;;;;;;;;;;;35.73;29.81;100467.91;4938981;28;6988;-86
2023/06/11 08:17:12;;;;;;;;;;;;;;;35.79;29.87;100472.91;4937381;28;6960;-85
2023/06/11 08:19:37;;;;;;;;;;;;;;;35.90;29.69;100466.09;4938254;28;7087;-86
2023/06/11 08:22:03;;;;;;;;;;;;;;;36.05;29.80;100467.00;4936558;28;6967;-84
2023/06/11 08:24:30;;;;;;;;;;;;;;;36.20;29.89;100466.13;4920212;28;9418;-86
2023/06/11 08:26:56;;;;;;;;;;;;;;;36.38;29.33;100461.50;4932327;28;8862;-85
2023/06/11 08:29:22;;;;;;;;;;;;;;;36.67;29.69;100464.22;4935003;28;7678;-87
2023/06/11 08:31:48;;;;;;;;;;;;;;;36.86;28.34;100457.75;4936977;28;7537;-86
2023/06/11 08:34:15;;;;;;;;;;;;;;;36.93;28.48;100453.75;4934667;28;6991;-83
2023/06/11 08:36:46;;;;;;;;;;;;;;;37.07;28.25;100449.38;4937713;28;7264;-86
2023/06/11 08:39:11;;;;;;;;;;;;;;;37.23;28.01;100455.47;4919027;29;7050;-86
2023/06/11 08:41:37;;;;;;;;;;;;;;;37.31;27.96;100444.28;4926001;28;8408;-86
2023/06/11 08:44:03;;;;;;;;;;;;;;;37.42;27.70;100450.75;4929677;29;7152;-85
2023/06/11 08:46:35;;;;;;;;;;;;;;;37.51;27.17;100445.66;4935483;28;7194;-82
2023/06/11 08:49:11;;;;;;;;;;;;;;;37.62;27.15;100449.50;4919919;29;7264;-82
2023/06/11 08:51:38;;;;;;;;;;;;;;;37.73;26.57;100451.47;4930563;28;6804;-83
2023/06/11 08:54:09;;;;;;;;;;;;;;;37.84;26.93;100448.94;4922881;28;7229;-86
2023/06/11 08:56:37;;;;;;;;;;;;;;;38.03;26.72;100445.88;4918367;29;8661;-84
2023/06/11 08:59:05;;;;;;;;;;;;;;;38.27;26.63;100450.53;4922019;28;7211;-86
2023/06/11 09:01:32;;;;;;;;;;;;;;;38.55;26.29;100447.78;4924971;28;7211;-86
2023/06/11 09:03:59;;;;;;;;;;;;;;;38.78;26.36;100447.97;4937178;28;6892;-84
2023/06/11 09:06:43;;;;;;;;;;;;;;;38.92;25.96;100438.97;4924098;28;7849;-86
2023/06/11 09:09:17;;;;;;;;;;;;;;;39.09;25.82;100446.69;4941177;28;6832;-87
2023/06/11 09:11:49;;;;;;;;;;;;;;;39.28;25.54;100448.88;4920605;28;7060;-87
2023/06/11 09:14:20;;;;;;;;;;;;;;;39.27;25.01;100439.16;4930777;28;7209;-86
2023/06/11 09:16:51;;;;;;;;;;;;;;;39.27;25.04;100447.19;4940567;28;6976;-91
2023/06/11 09:19:19;;;;;;;;;;;;;;;39.27;24.96;100449.88;4944181;28;6984;-88
2023/06/11 09:21:56;;;;;;;;;;;;;;;39.33;24.87;100447.69;4920856;28;6984;-86
2023/06/11 09:24:54;;;;;;;;;;;;;;;39.51;24.60;100450.88;4922183;28;7392;-87
2023/06/11 09:27:24;;;;;;;;;;;;;;;39.60;24.60;100452.88;4919870;28;7028;-87
2023/06/11 09:29:50;;;;;;;;;;;;;;;39.65;24.28;100450.69;4936643;28;6968;-86
2023/06/11 09:32:20;;;;;;;;;;;;;;;39.70;24.60;100445.84;4921505;28;6811;-87
2023/06/11 09:34:46;;;;;;;;;;;;;;;39.79;24.42;100444.28;4926997;28;6980;-89
2023/06/11 09:37:16;;;;;;;;;;;;;;;40.03;24.29;100439.91;4923511;28;7061;-85
2023/06/11 09:40:05;;;;;;;;;;;;;;;40.27;24.04;100442.53;4916076;28;6971;-87
2023/06/11 09:42:37;;;;;;;;;;;;;;;40.45;23.59;100445.63;4940945;28;6816;-86
2023/06/11 09:45:03;;;;;;;;;;;;;;;40.63;23.47;100443.31;4932152;28;7215;-86
2023/06/11 09:47:31;;;;;;;;;;;;;;;40.87;23.03;100444.22;4927543;28;7160;-86
2023/06/11 09:50:01;;;;;;;;;;;;;;;41.04;22.63;100443.69;4918598;28;7206;-88
2023/06/11 09:52:28;;;;;;;;;;;;;;;41.22;22.88;100445.88;4925109;28;7854;-86
2023/06/11 09:55:05;;;;;;;;;;;;;;;41.31;22.73;100446.97;4920865;28;7074;-88
2023/06/11 09:57:32;;;;;;;;;;;;;;;41.44;22.80;100447.66;4924187;28;6889;-87
2023/06/11 10:00:02;;;;;;;;;;;;;;;41.66;22.56;100437.84;4934564;28;6957;-84
2023/06/11 10:02:33;;;;;;;;;;;;;;;41.83;22.39;100449.88;4931152;28;7155;-85
2023/06/11 10:05:01;;;;;;;;;;;;;;;41.94;21.97;100440.03;4935082;28;7016;-85
2023/06/11 10:07:39;;;;;;;;;;;;;;;41.99;21.66;100453.94;4924256;28;7000;-87
2023/06/11 10:10:19;;;;;;;;;;;;;;;42.10;21.20;100453.91;4927462;28;8327;-86
2023/06/11 10:12:53;;;;;;;;;;;;;;;42.29;21.32;100445.13;4921816;28;7199;-87
2023/06/11 10:15:24;;;;;;;;;;;;;;;42.34;21.38;100442.03;4928410;28;7158;-87
2023/06/11 10:17:53;;;;;;;;;;;;;;;42.39;20.92;100444.31;4925554;28;7033;-87
2023/06/11 10:20:31;;;;;;;;;;;;;;;42.46;21.02;100438.25;4925049;28;6839;-84
2023/06/11 10:23:15;;;;;;;;;;;;;;;42.53;20.86;100443.16;4932279;28;6860;-87
2023/06/11 10:25:41;;;;;;;;;;;;;;;42.53;20.73;100437.75;4905404;28;6994;-83
2023/06/11 10:28:09;;;;;;;;;;;;;;;42.61;20.72;100429.88;4902324;28;8425;-85
2023/06/11 10:30:35;;;;;;;;;;;;;;;42.74;20.42;100435.03;4925492;28;6993;-87
2023/06/11 10:33:06;;;;;;;;;;;;;;;42.78;20.48;100435.56;4923552;28;6913;-87
2023/06/11 10:35:46;;;;;;;;;;;;;;;42.86;20.83;100436.63;4925825;28;6832;-89
2023/06/11 10:38:16;;;;;;;;;;;;;;;42.88;20.10;100431.06;4931256;28;6817;-86
2023/06/11 10:40:42;;;;;;;;;;;;;;;42.80;19.98;100423.69;4938536;28;6983;-85
2023/06/11 10:43:23;;;;;;;;;;;;;;;42.81;20.09;100429.94;4931927;28;6945;-86
2023/06/11 10:46:11;;;;;;;;;;;;;;;42.85;19.92;100436.75;4937289;28;6826;-87
2023/06/11 10:48:50;;;;;;;;;;;;;;;42.86;19.92;100427.66;4923084;28;7101;-85
2023/06/11 10:51:17;;;;;;;;;;;;;;;42.88;19.85;100425.69;4917212;28;6994;-85
2023/06/11 10:53:43;;;;;;;;;;;;;;;42.83;19.86;100436.03;4933947;28;6963;-86
2023/06/11 10:56:13;;;;;;;;;;;;;;;42.85;20.03;100437.59;4936704;28;8442;-86
2023/06/11 10:58:39;;;;;;;;;;;;;;;42.89;19.61;100427.41;4924929;28;7138;-85
2023/06/11 11:01:08;;;;;;;;;;;;;;;42.83;19.78;100433.34;4933395;28;8493;-83
2023/06/11 11:03:38;;;;;;;;;;;;;;;42.80;19.86;100428.22;4930915;28;8785;-84
2023/06/11 11:06:04;;;;;;;;;;;;;;;42.73;19.60;100434.16;4935644;28;8467;-83
2023/06/11 11:08:30;;;;;;;;;;;;;;;42.70;19.63;100428.19;4938278;28;7031;-85
2023/06/11 11:10:59;;;;;;;;;;;;;;;42.71;19.44;100424.50;4935701;28;8536;-87
2023/06/11 11:13:26;;;;;;;;;;;;;;;42.72;19.62;100426.19;4937899;28;6832;-86
2023/06/11 11:15:52;;;;;;;;;;;;;;;42.77;19.25;100429.34;4928528;28;8516;-84
2023/06/11 11:18:21;;;;;;;;;;;;;;;42.85;19.29;100436.75;4927910;28;6973;-84
2023/06/11 11:20:47;;;;;;;;;;;;;;;42.88;19.20;100433.75;4935683;28;7550;-86
2023/06/11 11:23:15;;;;;;;;;;;;;;;42.85;19.21;100425.97;4935313;28;7021;-85
2023/06/11 11:25:42;;;;;;;;;;;;;;;42.82;18.98;100428.94;4925057;28;7019;-82
2023/06/11 11:28:11;;;;;;;;;;;;;;;42.82;18.77;100426.25;4952320;28;8487;-86
2023/06/11 11:30:39;;;;;;;;;;;;;;;42.79;18.86;100427.38;4921712;28;8688;-84
2023/06/11 11:33:05;;;;;;;;;;;;;;;42.86;19.26;100433.06;4931514;28;8690;-87
2023/06/11 11:35:31;;;;;;;;;;;;;;;42.93;18.76;100428.84;4933093;28;8487;-87
2023/06/11 11:38:00;;;;;;;;;;;;;;;43.04;18.84;100424.34;4932887;28;8301;-86
2023/06/11 11:40:25;;;;;;;;;;;;;;;43.20;18.77;100430.06;4916534;28;8528;-85
2023/06/11 11:42:58;;;;;;;;;;;;;;;43.33;18.62;100428.94;4934173;28;8483;-86
2023/06/11 11:45:32;;;;;;;;;;;;;;;43.43;18.61;100427.13;4931315;28;7219;-84
2023/06/11 11:48:00;;;;;;;;;;;;;;;43.45;18.55;100422.44;4931000;28;8324;-84
2023/06/11 11:50:30;;;;;;;;;;;;;;;43.46;18.09;100424.13;4923001;28;8523;-86
2023/06/11 11:53:15;;;;;;;;;;;;;;;43.41;17.90;100421.88;4919723;28;8810;-84
2023/06/11 11:55:45;;;;;;;;;;;;;;;43.31;17.97;100420.97;4932780;28;6812;-85
2023/06/11 11:58:16;;;;;;;;;;;;;;;43.27;18.12;100425.81;4920279;28;8812;-84
2023/06/11 12:00:51;;;;;;;;;;;;;;;43.27;18.18;100415.03;4932799;28;7311;-86
2023/06/11 12:03:22;;;;;;;;;;;;;;;43.30;17.80;100411.19;4937722;28;6858;-85
2023/06/11 12:06:04;;;;;;;;;;;;;;;43.39;18.04;100417.63;4923187;28;7277;-84
2023/06/11 12:08:36;;;;;;;;;;;;;;;43.41;17.86;100419.19;4915419;28;8668;-83
2023/06/11 12:11:06;;;;;;;;;;;;;;;43.37;17.84;100422.31;4934594;28;6847;-85
2023/06/11 12:13:31;;;;;;;;;;;;;;;43.35;18.06;100413.50;4936083;28;8823;-86
2023/06/11 12:15:57;;;;;;;;;;;;;;;43.35;18.24;100413.50;4916541;28;8571;-85
2023/06/11 12:18:23;;;;;;;;;;;;;;;43.36;18.02;100407.97;4919271;28;8593;-83
2023/06/11 12:20:48;;;;;;;;;;;;;;;43.40;17.73;100403.97;4930663;28;8450;-83
2023/06/11 12:23:14;;;;;;;;;;;;;;;43.42;17.94;100409.25;4933327;28;8296;-85
2023/06/11 12:25:42;;;;;;;;;;;;;;;43.37;17.95;100406.13;4933612;28;6791;-84
2023/06/11 12:28:07;;;;;;;;;;;;;;;43.40;17.46;100398.59;4929730;28;8499;-84
2023/06/11 12:30:35;;;;;;;;;;;;;;;43.41;17.67;100394.06;4932123;28;7301;-84
2023/06/11 12:33:01;;;;;;;;;;;;;;;43.37;17.92;100398.88;4930172;28;8734;-84
2023/06/11 12:35:32;;;;;;;;;;;;;;;43.43;18.21;100395.63;4916300;28;7765;-82
2023/06/11 12:38:01;;;;;;;;;;;;;;;43.47;17.78;100401.59;4921311;29;8552;-85
2023/06/11 12:40:28;;;;;;;;;;;;;;;43.49;17.55;100387.94;4915259;28;6808;-84
2023/06/11 12:42:56;;;;;;;;;;;;;;;43.51;17.39;100392.22;4926683;29;6883;-83
2023/06/11 12:45:26;;;;;;;;;;;;;;;43.43;17.23;100390.22;4928818;28;6804;-84
2023/06/11 12:47:52;;;;;;;;;;;;;;;43.37;17.08;100398.03;4928931;28;7474;-86
2023/06/11 12:50:18;;;;;;;;;;;;;;;43.36;17.26;100396.31;4928364;28;8729;-84